Time;durP1;ratioP1;P1;durP2;ratioP2;P2;SDS_P1;SDS_P2;PMS_P1;PMS_P2;Temp;Humidity;BMP_temperature;BMP_pressure;BME280_temperature;BME280_humidity;BME280_pressure;Samples;Min_cycle;Max_cycle;Signal;HPM_P1;HPM_P2
2022/12/16 00:01:23;;;;;;;10.98;5.70;;;-0.20;70.80;;;;;;5047629;28;20025;-64
2022/12/16 00:03:55;;;;;;;8.90;6.43;;;-0.20;70.70;;;;;;5042600;28;20115;-65
2022/12/16 00:06:23;;;;;;;14.25;5.60;;;-0.20;70.70;;;;;;5050986;28;20373;-65
2022/12/16 00:08:48;;;;;;;9.95;6.22;;;-0.20;70.80;;;;;;5050083;28;20179;-62
2022/12/16 00:11:14;;;;;;;7.65;5.43;;;-0.10;70.80;;;;;;5051360;28;20060;-62
2022/12/16 00:13:40;;;;;;;10.10;5.07;;;-0.10;70.80;;;;;;5048560;28;20032;-62
2022/12/16 00:16:08;;;;;;;9.68;5.97;;;-0.10;70.70;;;;;;5062673;28;20017;-62
2022/12/16 00:18:34;;;;;;;8.18;5.25;;;-0.10;70.70;;;;;;5046837;28;20021;-62
2022/12/16 00:21:00;;;;;;;14.00;6.07;;;-0.10;70.70;;;;;;5058170;28;20316;-61
2022/12/16 00:23:27;;;;;;;6.97;4.57;;;-0.10;70.90;;;;;;5047671;28;20092;-62
2022/12/16 00:25:53;;;;;;;8.63;5.10;;;-0.10;70.90;;;;;;5057302;28;20487;-65
2022/12/16 00:28:21;;;;;;;10.80;5.75;;;0.00;70.90;;;;;;5049278;28;20043;-65
2022/12/16 00:30:52;;;;;;;6.68;4.32;;;0.00;70.80;;;;;;5053915;28;20052;-64
2022/12/16 00:33:19;;;;;;;9.93;6.50;;;0.00;70.80;;;;;;5044831;28;20471;-62
2022/12/16 00:35:45;;;;;;;9.13;5.40;;;0.10;70.90;;;;;;5050536;28;20472;-65
2022/12/16 00:38:11;;;;;;;10.93;6.07;;;0.10;70.90;;;;;;5045828;28;20017;-65
2022/12/16 00:40:37;;;;;;;9.07;5.53;;;0.20;70.90;;;;;;5052453;28;20060;-65
2022/12/16 00:43:03;;;;;;;9.75;5.90;;;0.20;70.80;;;;;;5050392;28;20121;-61
2022/12/16 00:45:29;;;;;;;10.93;6.65;;;0.20;70.80;;;;;;5061309;28;20048;-63
2022/12/16 00:47:55;;;;;;;12.98;5.78;;;0.30;70.80;;;;;;5051685;28;20060;-64
2022/12/16 00:50:20;;;;;;;8.98;4.97;;;0.30;70.80;;;;;;5057096;28;20091;-63
2022/12/16 00:52:47;;;;;;;7.93;5.07;;;0.40;70.90;;;;;;5041081;28;20032;-64
2022/12/16 00:55:14;;;;;;;8.48;6.18;;;0.40;71.40;;;;;;5040722;28;20021;-61
2022/12/16 00:57:40;;;;;;;11.00;5.38;;;0.40;70.80;;;;;;5046699;28;20017;-64
2022/12/16 01:00:11;;;;;;;12.77;7.70;;;0.40;70.90;;;;;;5047064;28;20021;-64
2022/12/16 01:02:41;;;;;;;10.52;5.53;;;0.40;70.90;;;;;;5050025;28;20029;-63
2022/12/16 01:05:09;;;;;;;6.95;5.57;;;0.40;71.70;;;;;;5045948;28;20045;-64
2022/12/16 01:07:34;;;;;;;8.10;4.50;;;0.50;71.00;;;;;;5048805;28;20030;-60
2022/12/16 01:10:00;;;;;;;13.80;7.28;;;0.50;71.00;;;;;;5040486;28;20036;-64
2022/12/16 01:12:26;;;;;;;5.80;4.75;;;0.50;70.90;;;;;;5049930;28;20041;-61
2022/12/16 01:14:52;;;;;;;9.07;5.65;;;0.60;71.10;;;;;;5048520;28;20036;-64
2022/12/16 01:17:18;;;;;;;10.93;5.90;;;0.60;71.10;;;;;;5049825;28;20029;-61
2022/12/16 01:19:43;;;;;;;8.63;5.40;;;0.60;71.20;;;;;;5045400;28;20244;-61
2022/12/16 01:22:10;;;;;;;10.57;5.95;;;0.60;71.20;;;;;;5045161;28;20377;-61
2022/12/16 01:24:35;;;;;;;14.68;7.18;;;0.70;71.30;;;;;;5053484;28;20060;-61
2022/12/16 01:27:01;;;;;;;9.02;6.00;;;0.70;71.20;;;;;;5048708;28;20458;-61
2022/12/16 01:29:27;;;;;;;9.07;5.40;;;0.70;71.30;;;;;;5057691;28;20032;-61
2022/12/16 01:31:52;;;;;;;8.85;5.60;;;0.70;71.30;;;;;;5042519;28;20033;-63
2022/12/16 01:34:18;;;;;;;7.05;5.30;;;0.70;71.30;;;;;;5045213;28;20063;-64
2022/12/16 01:36:44;;;;;;;7.10;5.00;;;0.80;71.40;;;;;;5048081;28;20385;-61
2022/12/16 01:39:10;;;;;;;8.70;6.35;;;0.80;71.40;;;;;;5052393;28;20550;-64
2022/12/16 01:41:36;;;;;;;8.63;5.78;;;0.80;71.30;;;;;;5041003;28;20055;-63
2022/12/16 01:44:22;;;;;;;8.50;5.72;;;0.70;71.40;;;;;;5045693;28;20038;-61
2022/12/16 01:46:55;;;;;;;10.85;5.65;;;0.80;71.50;;;;;;5046335;28;20499;-61
2022/12/16 01:49:36;;;;;;;10.88;6.05;;;0.80;71.50;;;;;;5053979;28;20036;-61
2022/12/16 01:52:06;;;;;;;8.20;4.95;;;0.80;71.50;;;;;;5046715;28;20028;-63
2022/12/16 01:54:52;;;;;;;11.10;5.20;;;0.80;71.50;;;;;;5048662;28;20048;-64
2022/12/16 01:57:25;;;;;;;11.15;5.50;;;0.90;71.50;;;;;;5048650;28;20044;-61
2022/12/16 01:59:52;;;;;;;10.50;5.90;;;0.90;71.60;;;;;;5048008;28;20091;-61
2022/12/16 02:02:19;;;;;;;11.20;6.38;;;0.90;71.70;;;;;;5048109;28;20068;-64
2022/12/16 02:07:29;;;;;;;11.05;5.15;;;0.90;71.70;;;;;;5043731;28;20114;-64
2022/12/16 02:09:55;;;;;;;11.18;6.05;;;1.00;71.80;;;;;;5055662;28;20071;-61
2022/12/16 02:12:47;;;;;;;7.30;5.53;;;1.00;71.80;;;;;;5053632;28;20356;-61
2022/12/16 02:15:12;;;;;;;12.13;6.10;;;1.00;71.70;;;;;;5057288;28;20051;-61
2022/12/16 02:17:43;;;;;;;10.98;6.80;;;1.00;71.80;;;;;;5043490;28;20025;-64
2022/12/16 02:20:30;;;;;;;7.25;5.82;;;1.00;71.90;;;;;;5054497;28;20489;-64
2022/12/16 02:23:34;;;;;;;8.13;6.03;;;1.00;71.90;;;;;;5039837;28;20034;-63
2022/12/16 02:26:19;;;;;;;8.43;6.40;;;1.00;72.00;;;;;;5044470;28;20136;-63
2022/12/16 02:28:47;;;;;;;13.10;6.70;;;1.00;71.90;;;;;;5035854;28;20652;-64
2022/12/16 02:31:30;;;;;;;9.85;6.10;;;1.00;72.00;;;;;;5053108;28;20086;-61
2022/12/16 02:34:16;;;;;;;;;;;1.10;72.10;;;;;;5044964;28;20036;-61
2022/12/16 02:37:16;;;;;;;11.40;5.68;;;1.10;72.10;;;;;;5039664;28;19912;-61
2022/12/16 02:39:57;;;;;;;9.57;5.97;;;1.10;72.10;;;;;;5046037;28;20487;-61
2022/12/16 02:42:42;;;;;;;7.22;5.35;;;1.10;72.20;;;;;;5048641;28;20400;-61
2022/12/16 02:45:18;;;;;;;8.45;5.78;;;1.10;72.20;;;;;;5045123;28;20025;-64
2022/12/16 02:47:45;;;;;;;10.18;5.97;;;1.10;72.20;;;;;;5049033;28;20017;-61
2022/12/16 02:50:20;;;;;;;10.80;6.15;;;1.10;72.30;;;;;;5042762;28;20079;-61
2022/12/16 02:52:45;;;;;;;11.60;6.25;;;1.20;72.30;;;;;;5039270;28;20021;-61
2022/12/16 02:55:12;;;;;;;11.73;5.57;;;1.20;72.30;;;;;;5044177;28;20112;-61
2022/12/16 02:57:52;;;;;;;6.00;4.72;;;1.20;72.30;;;;;;5051274;28;20032;-64
2022/12/16 03:00:21;;;;;;;9.98;6.13;;;1.20;72.30;;;;;;5049979;28;20037;-61
2022/12/16 03:02:52;;;;;;;9.38;6.25;;;1.20;72.40;;;;;;5038998;28;20021;-63
2022/12/16 03:05:35;;;;;;;7.30;4.93;;;1.20;72.40;;;;;;5048724;28;20515;-63
2022/12/16 03:08:05;;;;;;;12.63;5.65;;;1.30;72.40;;;;;;5041836;28;20236;-61
2022/12/16 03:10:37;;;;;;;10.90;5.97;;;1.20;72.40;;;;;;5050788;28;20375;-63
2022/12/16 03:13:04;;;;;;;;;;;1.20;72.40;;;;;;5061326;28;20437;-64
2022/12/16 03:15:33;;;;;;;11.18;5.82;;;1.20;72.50;;;;;;5050971;28;20398;-64
2022/12/16 03:18:02;;;;;;;10.65;5.53;;;1.10;72.60;;;;;;5058876;28;20108;-64
2022/12/16 03:20:35;;;;;;;7.55;5.07;;;1.20;72.70;;;;;;5041523;28;20112;-64
2022/12/16 03:23:07;;;;;;;7.68;4.43;;;1.20;72.60;;;;;;5057784;28;20063;-61
2022/12/16 03:25:36;;;;;;;8.13;5.28;;;1.20;72.60;;;;;;5051198;28;20162;-63
2022/12/16 03:28:09;;;;;;;8.25;4.82;;;1.20;72.70;;;;;;5056585;28;20424;-63
2022/12/16 03:30:41;;;;;;;9.48;5.57;;;1.20;72.70;;;;;;5043333;28;20492;-63
2022/12/16 03:33:25;;;;;;;7.72;5.70;;;1.20;72.80;;;;;;5054070;28;20139;-64
2022/12/16 03:35:58;;;;;;;10.27;5.95;;;1.30;72.80;;;;;;5048313;28;20380;-63
2022/12/16 03:38:25;;;;;;;;;;;1.30;72.90;;;;;;5052514;28;20173;-64
2022/12/16 03:40:52;;;;;;;10.27;6.03;;;1.20;72.80;;;;;;5081818;28;20003;-61
2022/12/16 03:43:18;;;;;;;8.80;5.78;;;1.20;72.90;;;;;;5045997;28;20022;-61
2022/12/16 03:45:45;;;;;;;6.93;5.38;;;1.20;72.90;;;;;;5042841;28;20171;-64
2022/12/16 03:48:12;;;;;;;8.00;5.43;;;1.20;72.90;;;;;;5049778;28;20041;-64
2022/12/16 03:50:39;;;;;;;11.13;6.57;;;1.20;73.00;;;;;;5055287;28;20037;-64
2022/12/16 03:53:06;;;;;;;10.43;6.07;;;1.30;73.00;;;;;;5048825;28;20132;-61
2022/12/16 03:55:32;;;;;;;10.30;5.65;;;1.30;73.00;;;;;;5052320;28;20366;-61
2022/12/16 03:57:58;;;;;;;10.07;6.25;;;1.30;72.90;;;;;;5050315;28;20037;-61
2022/12/16 04:00:24;;;;;;;12.50;7.32;;;1.30;72.90;;;;;;5042367;28;20365;-61
2022/12/16 04:02:50;;;;;;;14.43;7.18;;;1.30;72.90;;;;;;5049844;28;20502;-61
2022/12/16 04:05:16;;;;;;;11.75;5.60;;;1.30;73.00;;;;;;5039317;28;20033;-61
2022/12/16 04:07:42;;;;;;;11.00;8.98;;;1.30;72.90;;;;;;5057104;28;20419;-61
2022/12/16 04:10:08;;;;;;;12.48;6.72;;;1.30;73.00;;;;;;5043857;28;20029;-61
2022/12/16 04:27:23;;;;;;;12.40;8.50;;;1.40;73.30;;;;;;5042648;28;20041;-61
2022/12/16 04:29:20;;;;;;;15.45;7.78;;;1.40;73.40;;;;;;5051898;28;20037;-61
2022/12/16 04:31:46;;;;;;;14.55;7.63;;;1.40;73.50;;;;;;5055605;28;20032;-61
2022/12/16 04:34:27;;;;;;;10.00;7.65;;;1.40;73.50;;;;;;5038158;28;20119;-62
